createdAt,value
2023-04-23T00:00:24.229Z,38
2023-04-23T00:01:27.536Z,38
2023-04-23T00:02:31.119Z,38
2023-04-23T00:03:35.357Z,38
2023-04-23T00:04:39.904Z,38
2023-04-23T00:05:44.226Z,37
2023-04-23T00:06:47.492Z,37
2023-04-23T00:07:50.853Z,37
2023-04-23T00:08:54.217Z,37
2023-04-23T00:09:57.526Z,36
2023-04-23T00:11:00.842Z,37
2023-04-23T00:12:04.229Z,37
2023-04-23T00:13:07.584Z,37
2023-04-23T00:14:11.178Z,37
2023-04-23T00:15:14.504Z,37
2023-04-23T00:16:17.824Z,37
2023-04-23T00:17:21.312Z,37
2023-04-23T00:18:24.712Z,37
2023-04-23T00:19:28.224Z,37
2023-04-23T00:20:31.605Z,37
2023-04-23T00:21:35.136Z,38
2023-04-23T00:22:38.417Z,38
2023-04-23T00:23:41.795Z,38
2023-04-23T00:24:45.231Z,38
2023-04-23T00:25:48.523Z,38
2023-04-23T00:26:51.785Z,38
2023-04-23T00:27:55.237Z,38
2023-04-23T00:28:58.544Z,38
2023-04-23T00:30:02.226Z,38
2023-04-23T00:31:05.526Z,38
2023-04-23T00:32:08.939Z,38
2023-04-23T00:33:12.309Z,38
2023-04-23T00:34:15.658Z,38
2023-04-23T00:35:18.964Z,38
2023-04-23T00:36:22.277Z,38
2023-04-23T00:37:25.615Z,38
2023-04-23T00:38:29.141Z,38
2023-04-23T00:39:32.481Z,38
2023-04-23T00:40:35.787Z,38
2023-04-23T00:41:39.218Z,38
2023-04-23T00:42:42.516Z,38
2023-04-23T00:43:45.814Z,38
2023-04-23T00:44:49.257Z,38
2023-04-23T00:45:52.711Z,38
2023-04-23T00:46:56.393Z,38
2023-04-23T00:48:00.006Z,37
2023-04-23T00:49:03.601Z,37
2023-04-23T00:50:06.908Z,37
2023-04-23T00:51:10.246Z,37
2023-04-23T00:52:13.570Z,37
2023-04-23T00:53:16.846Z,37
2023-04-23T00:54:20.366Z,36
2023-04-23T00:55:23.664Z,36
2023-04-23T00:56:26.983Z,36
2023-04-23T00:57:30.255Z,36
2023-04-23T00:58:33.536Z,36
2023-04-23T00:59:36.850Z,36
2023-04-23T01:00:40.250Z,36
2023-04-23T01:01:43.962Z,36
2023-04-23T01:02:47.667Z,36
2023-04-23T01:03:51.580Z,36
2023-04-23T01:04:55.371Z,36
2023-04-23T01:05:58.671Z,36
2023-04-23T01:07:02.163Z,36
2023-04-23T01:08:05.468Z,36
2023-04-23T01:09:08.764Z,36
2023-04-23T01:10:12.293Z,36
2023-04-23T01:11:15.635Z,37
2023-04-23T01:12:18.931Z,37
2023-04-23T01:13:22.294Z,37
2023-04-23T01:14:25.775Z,37
2023-04-23T01:15:29.420Z,37
2023-04-23T01:16:32.804Z,38
2023-04-23T01:17:36.359Z,38
2023-04-23T01:18:39.654Z,38
2023-04-23T01:19:42.942Z,38
2023-04-23T01:20:46.248Z,38
2023-04-23T01:21:49.535Z,38
2023-04-23T01:22:52.801Z,38
2023-04-23T01:23:56.350Z,38
2023-04-23T01:24:59.668Z,38
2023-04-23T01:26:02.984Z,38
2023-04-23T01:27:06.312Z,38
2023-04-23T01:28:09.641Z,38
2023-04-23T01:29:12.909Z,38
2023-04-23T01:30:16.292Z,38
2023-04-23T01:31:19.606Z,38
2023-04-23T01:32:23.221Z,38
2023-04-23T01:33:26.713Z,39
2023-04-23T01:34:29.998Z,38
2023-04-23T01:35:33.304Z,39
2023-04-23T01:36:36.569Z,39
2023-04-23T01:37:39.845Z,39
2023-04-23T01:38:43.268Z,39
2023-04-23T01:39:46.586Z,39
2023-04-23T01:40:50.147Z,39
2023-04-23T01:41:53.442Z,39
2023-04-23T01:42:56.747Z,39
2023-04-23T01:44:00.258Z,39
2023-04-23T01:45:03.659Z,39
2023-04-23T01:46:06.987Z,39
2023-04-23T01:47:10.310Z,39
2023-04-23T01:48:13.609Z,39
2023-04-23T01:49:17.148Z,39
2023-04-23T01:50:20.410Z,39
2023-04-23T01:51:23.680Z,39
2023-04-23T01:52:27.015Z,39
2023-04-23T01:53:30.277Z,39
2023-04-23T01:54:33.563Z,39
2023-04-23T01:55:36.874Z,39
2023-04-23T01:56:40.284Z,39
2023-04-23T01:57:43.607Z,39
2023-04-23T01:58:47.183Z,39
2023-04-23T01:59:50.464Z,39
2023-04-23T02:00:53.775Z,39
2023-04-23T02:01:57.543Z,39
2023-04-23T02:03:01.615Z,39
2023-04-23T02:04:05.935Z,39
2023-04-23T02:05:09.358Z,38
2023-04-23T02:06:12.822Z,38
2023-04-23T02:07:16.287Z,38
2023-04-23T02:08:19.566Z,37
2023-04-23T02:09:22.841Z,37
2023-04-23T02:10:26.334Z,37
2023-04-23T02:11:29.661Z,37
2023-04-23T02:12:32.938Z,37
2023-04-23T02:13:36.282Z,37
2023-04-23T02:14:40.433Z,37
2023-04-23T02:15:44.424Z,37
2023-04-23T02:16:47.769Z,37
2023-04-23T02:17:51.475Z,37
2023-04-23T02:18:54.819Z,37
2023-04-23T02:19:58.337Z,37
2023-04-23T02:21:01.645Z,37
2023-04-23T02:22:05.189Z,36
2023-04-23T02:23:08.470Z,36
2023-04-23T02:24:11.805Z,37
2023-04-23T02:25:15.343Z,37
2023-04-23T02:26:18.618Z,37
2023-04-23T02:27:22.042Z,38
2023-04-23T02:28:25.391Z,38
2023-04-23T02:29:28.732Z,38
2023-04-23T02:30:32.308Z,38
2023-04-23T02:31:35.780Z,38
2023-04-23T02:32:39.240Z,38
2023-04-23T02:33:42.680Z,38
2023-04-23T02:34:45.983Z,38
2023-04-23T02:35:49.814Z,38
2023-04-23T02:36:54.032Z,38
2023-04-23T02:37:57.327Z,38
2023-04-23T02:39:00.626Z,38
2023-04-23T02:40:03.917Z,38
2023-04-23T02:41:07.327Z,37
2023-04-23T02:42:10.610Z,37
2023-04-23T02:43:13.913Z,37
2023-04-23T02:44:17.400Z,37
2023-04-23T02:45:20.684Z,37
2023-04-23T02:46:24.105Z,38
2023-04-23T02:47:27.606Z,38
2023-04-23T02:48:30.987Z,38
2023-04-23T02:49:34.299Z,38
2023-04-23T02:50:37.631Z,38
2023-04-23T02:51:40.910Z,38
2023-04-23T02:52:47.687Z,38
2023-04-23T02:53:50.977Z,38
2023-04-23T02:54:54.345Z,38
2023-04-23T02:55:57.621Z,37
2023-04-23T02:57:00.909Z,37
2023-04-23T02:58:04.315Z,37
2023-04-23T02:59:07.643Z,37
2023-04-23T03:00:10.915Z,37
2023-04-23T03:01:14.470Z,37
2023-04-23T03:02:18.118Z,38
2023-04-23T03:03:22.030Z,38
2023-04-23T03:04:25.659Z,38
2023-04-23T03:05:29.188Z,37
2023-04-23T03:06:32.522Z,37
2023-04-23T03:07:35.801Z,37
2023-04-23T03:08:39.309Z,37
2023-04-23T03:09:42.586Z,37
2023-04-23T03:10:45.881Z,37
2023-04-23T03:11:49.318Z,37
2023-04-23T03:12:52.933Z,38
2023-04-23T03:13:57.311Z,38
2023-04-23T03:15:00.697Z,37
2023-04-23T03:16:03.965Z,37
2023-04-23T03:17:07.329Z,38
2023-04-23T03:18:10.694Z,38
2023-04-23T03:19:14.233Z,38
2023-04-23T03:20:17.521Z,38
2023-04-23T03:21:20.841Z,38
2023-04-23T03:22:24.330Z,38
2023-04-23T03:23:27.592Z,38
2023-04-23T03:24:30.896Z,38
2023-04-23T03:25:34.336Z,38
2023-04-23T03:26:37.651Z,38
2023-04-23T03:27:40.921Z,38
2023-04-23T03:28:44.446Z,39
2023-04-23T03:29:47.740Z,39
2023-04-23T03:30:51.135Z,39
2023-04-23T03:31:54.586Z,39
2023-04-23T03:32:57.949Z,39
2023-04-23T03:34:01.349Z,39
2023-04-23T03:35:04.617Z,39
2023-04-23T03:36:07.911Z,39
2023-04-23T03:37:11.442Z,39
2023-04-23T03:38:14.719Z,39
2023-04-23T03:39:18.002Z,39
2023-04-23T03:40:21.362Z,39
2023-04-23T03:41:24.644Z,39
2023-04-23T03:42:27.935Z,39
2023-04-23T03:43:31.353Z,39
2023-04-23T03:44:34.627Z,39
2023-04-23T03:45:37.914Z,39
2023-04-23T03:46:41.470Z,39
2023-04-23T03:47:44.831Z,39
2023-04-23T03:48:48.327Z,39
2023-04-23T03:49:51.621Z,39
2023-04-23T03:50:54.949Z,39
2023-04-23T03:51:58.347Z,39
2023-04-23T03:53:01.653Z,39
2023-04-23T03:54:05.213Z,39
2023-04-23T03:55:08.508Z,39
2023-04-23T03:56:11.815Z,39
2023-04-23T03:57:15.129Z,39
2023-04-23T03:58:18.482Z,39
2023-04-23T03:59:21.853Z,39
2023-04-23T04:00:25.332Z,39
2023-04-23T04:01:28.593Z,39
2023-04-23T04:02:32.375Z,39
2023-04-23T04:03:36.448Z,39
2023-04-23T04:04:41.680Z,39
2023-04-23T04:05:46.305Z,39
2023-04-23T04:06:49.963Z,39
2023-04-23T04:07:53.462Z,39
2023-04-23T04:08:56.741Z,39
2023-04-23T04:10:00.008Z,39
2023-04-23T04:11:03.337Z,39
2023-04-23T04:12:06.648Z,39
2023-04-23T04:13:09.918Z,39
2023-04-23T04:14:13.358Z,39
2023-04-23T04:15:16.686Z,39
2023-04-23T04:16:20.284Z,39
2023-04-23T04:17:23.786Z,39
2023-04-23T04:18:27.371Z,39
2023-04-23T04:19:30.672Z,39
2023-04-23T04:20:33.974Z,39
2023-04-23T04:21:37.385Z,39
2023-04-23T04:22:40.737Z,39
2023-04-23T04:23:44.270Z,39
2023-04-23T04:24:48.003Z,39
2023-04-23T04:25:51.355Z,39
2023-04-23T04:26:55.281Z,39
2023-04-23T04:27:59.492Z,39
2023-04-23T04:29:02.778Z,39
2023-04-23T04:30:06.072Z,39
2023-04-23T04:31:09.395Z,39
2023-04-23T04:32:12.773Z,39
2023-04-23T04:33:16.070Z,39
2023-04-23T04:34:19.387Z,39
2023-04-23T04:35:22.690Z,39
2023-04-23T04:36:26.239Z,39
2023-04-23T04:37:29.647Z,39
2023-04-23T04:38:32.937Z,39
2023-04-23T04:39:36.368Z,39
2023-04-23T04:40:39.698Z,39
2023-04-23T04:41:42.986Z,39
2023-04-23T04:42:46.358Z,39
2023-04-23T04:43:49.683Z,39
2023-04-23T04:44:52.973Z,39
2023-04-23T04:45:56.461Z,39
2023-04-23T04:46:59.894Z,39
2023-04-23T04:48:03.382Z,38
2023-04-23T04:49:06.656Z,38
2023-04-23T04:50:09.961Z,38
2023-04-23T04:51:13.365Z,38
2023-04-23T04:52:16.640Z,38
2023-04-23T04:53:20.277Z,37
2023-04-23T04:54:23.549Z,37
2023-04-23T04:55:26.823Z,37
2023-04-23T04:56:30.076Z,37
2023-04-23T04:57:33.376Z,37
2023-04-23T04:58:36.694Z,38
2023-04-23T04:59:40.676Z,38
2023-04-23T05:00:45.006Z,38
2023-04-23T05:01:48.391Z,38
2023-04-23T05:02:51.907Z,39
2023-04-23T05:03:56.050Z,38
2023-04-23T05:04:59.660Z,38
2023-04-23T05:06:03.021Z,38
2023-04-23T05:07:06.368Z,38
2023-04-23T05:08:09.708Z,38
2023-04-23T05:09:13.065Z,38
2023-04-23T05:10:16.508Z,38
2023-04-23T05:11:19.811Z,38
2023-04-23T05:12:23.344Z,38
2023-04-23T05:13:26.664Z,39
2023-04-23T05:14:30.107Z,39
2023-04-23T05:15:33.462Z,39
2023-04-23T05:16:36.889Z,39
2023-04-23T05:17:40.643Z,39
2023-04-23T05:18:44.391Z,39
2023-04-23T05:19:47.685Z,39
2023-04-23T05:20:50.960Z,39
2023-04-23T05:21:54.411Z,39
2023-04-23T05:22:57.696Z,39
2023-04-23T05:24:00.969Z,39
2023-04-23T05:25:04.425Z,39
2023-04-23T05:26:07.749Z,39
2023-04-23T05:27:11.270Z,39
2023-04-23T05:28:14.563Z,39
2023-04-23T05:29:18.026Z,39
2023-04-23T05:30:21.417Z,39
2023-04-23T05:31:24.940Z,39
2023-04-23T05:32:30.538Z,39
2023-04-23T05:33:49.030Z,39
2023-04-23T05:34:51.955Z,39
2023-04-23T05:35:55.401Z,39
2023-04-23T05:36:58.701Z,39
2023-04-23T05:38:01.973Z,39
2023-04-23T05:39:05.499Z,39
2023-04-23T05:40:08.841Z,39
2023-04-23T05:41:12.128Z,39
2023-04-23T05:42:15.410Z,39
2023-04-23T05:43:18.702Z,39
2023-04-23T05:44:22.007Z,39
2023-04-23T05:45:25.395Z,39
2023-04-23T05:46:29.037Z,39
2023-04-23T05:47:32.917Z,39
2023-04-23T05:48:36.404Z,39
2023-04-23T05:49:39.726Z,40
2023-04-23T05:50:43.001Z,39
2023-04-23T05:51:46.928Z,39
2023-04-23T05:52:50.493Z,39
2023-04-23T05:53:53.793Z,40
2023-04-23T05:54:57.075Z,40
2023-04-23T05:56:00.422Z,40
2023-04-23T05:57:03.761Z,39
2023-04-23T05:58:07.042Z,40
2023-04-23T05:59:10.395Z,39
2023-04-23T06:00:13.693Z,39
2023-04-23T06:01:16.991Z,40
2023-04-23T06:02:24.944Z,40
2023-04-23T06:03:29.104Z,39
2023-04-23T06:04:33.555Z,39
2023-04-23T06:05:37.633Z,39
2023-04-23T06:06:41.303Z,39
2023-04-23T06:07:44.615Z,39
2023-04-23T06:08:47.923Z,39
2023-04-23T06:09:51.404Z,39
2023-04-23T06:10:54.706Z,39
2023-04-23T06:11:58.038Z,39
2023-04-23T06:13:01.430Z,39
2023-04-23T06:14:04.705Z,39
2023-04-23T06:15:07.975Z,39
2023-04-23T06:16:11.691Z,39
2023-04-23T06:17:15.042Z,39
2023-04-23T06:18:18.649Z,39
2023-04-23T06:19:21.976Z,39
2023-04-23T06:20:25.403Z,39
2023-04-23T06:21:28.728Z,39
2023-04-23T06:22:32.015Z,40
2023-04-23T06:23:35.588Z,40
2023-04-23T06:24:39.394Z,40
2023-04-23T06:25:43.404Z,39
2023-04-23T06:26:46.687Z,39
2023-04-23T06:27:49.998Z,40
2023-04-23T06:28:53.447Z,39
2023-04-23T06:29:56.738Z,39
2023-04-23T06:31:00.205Z,40
2023-04-23T06:32:03.911Z,39
2023-04-23T06:33:07.444Z,39
2023-04-23T06:34:10.779Z,39
2023-04-23T06:35:14.329Z,39
2023-04-23T06:36:17.610Z,39
2023-04-23T06:37:20.884Z,39
2023-04-23T06:38:24.415Z,39
2023-04-23T06:39:27.703Z,39
2023-04-23T06:40:31.072Z,39
2023-04-23T06:41:34.428Z,39
2023-04-23T06:42:37.729Z,39
2023-04-23T06:43:41.286Z,39
2023-04-23T06:44:44.588Z,39
2023-04-23T06:45:50.534Z,39
2023-04-23T06:46:53.924Z,40
2023-04-23T06:47:57.516Z,40
2023-04-23T06:49:00.854Z,40
2023-04-23T06:50:04.214Z,40
2023-04-23T06:51:07.533Z,40
2023-04-23T06:52:10.805Z,40
2023-04-23T06:53:14.334Z,40
2023-04-23T06:54:17.685Z,40
2023-04-23T06:55:20.984Z,40
2023-04-23T06:56:24.438Z,40
2023-04-23T06:57:28.036Z,40
2023-04-23T06:58:31.375Z,40
2023-04-23T06:59:34.684Z,40
2023-04-23T07:00:38.360Z,40
2023-04-23T07:01:41.697Z,40
2023-04-23T07:02:45.183Z,40
2023-04-23T07:03:48.598Z,40
2023-04-23T07:04:52.056Z,40
2023-04-23T07:05:55.436Z,40
2023-04-23T07:06:58.736Z,40
2023-04-23T07:08:02.311Z,40
2023-04-23T07:09:05.595Z,40
2023-04-23T07:10:08.890Z,40
2023-04-23T07:11:12.174Z,40
2023-04-23T07:12:15.532Z,40
2023-04-23T07:13:18.836Z,40
2023-04-23T07:14:22.127Z,40
2023-04-23T07:15:25.654Z,40
2023-04-23T07:16:29.023Z,40
2023-04-23T07:17:32.585Z,40
2023-04-23T07:18:36.000Z,40
2023-04-23T07:19:39.444Z,40
2023-04-23T07:20:42.911Z,40
2023-04-23T07:21:46.460Z,40
2023-04-23T07:22:49.780Z,40
2023-04-23T07:23:53.069Z,40
2023-04-23T07:24:56.572Z,40
2023-04-23T07:25:59.857Z,40
2023-04-23T07:27:03.129Z,40
2023-04-23T07:28:06.485Z,40
2023-04-23T07:29:09.755Z,40
2023-04-23T07:30:13.087Z,40
2023-04-23T07:31:16.498Z,40
2023-04-23T07:32:20.045Z,40
2023-04-23T07:33:23.691Z,40
2023-04-23T07:34:26.983Z,40
2023-04-23T07:35:30.493Z,40
2023-04-23T07:36:33.786Z,40
2023-04-23T07:37:37.099Z,40
2023-04-23T07:38:40.479Z,40
2023-04-23T07:39:44.843Z,40
2023-04-23T07:40:48.528Z,40
2023-04-23T07:41:51.832Z,40
2023-04-23T07:42:55.112Z,40
2023-04-23T07:43:58.557Z,40
2023-04-23T07:45:01.960Z,40
2023-04-23T07:46:05.551Z,40
2023-04-23T07:47:08.964Z,40
2023-04-23T07:48:12.481Z,40
2023-04-23T07:49:15.760Z,40
2023-04-23T07:50:19.069Z,40
2023-04-23T07:51:22.588Z,40
2023-04-23T07:52:25.864Z,40
2023-04-23T07:53:29.449Z,40
2023-04-23T07:54:32.727Z,40
2023-04-23T07:55:36.026Z,40
2023-04-23T07:56:42.683Z,40
2023-04-23T07:57:46.895Z,40
2023-04-23T07:58:50.484Z,40
2023-04-23T07:59:53.790Z,39
2023-04-23T08:00:57.098Z,39
2023-04-23T08:02:00.468Z,39
2023-04-23T08:03:04.053Z,39
2023-04-23T08:04:08.235Z,38
2023-04-23T08:05:12.545Z,38
2023-04-23T08:06:16.151Z,38
2023-04-23T08:07:19.502Z,38
2023-04-23T08:08:22.767Z,38
2023-04-23T08:09:26.074Z,38
2023-04-23T08:10:29.579Z,38
2023-04-23T08:11:32.898Z,38
2023-04-23T08:12:36.234Z,38
2023-04-23T08:13:39.526Z,38
2023-04-23T08:14:42.809Z,38
2023-04-23T08:15:46.202Z,38
2023-04-23T08:16:49.570Z,38
2023-04-23T08:17:52.876Z,38
2023-04-23T08:19:05.206Z,38
2023-04-23T08:20:09.882Z,38
2023-04-23T08:21:13.235Z,38
2023-04-23T08:22:16.596Z,38
2023-04-23T08:23:19.860Z,39
2023-04-23T08:24:23.404Z,39
2023-04-23T08:25:26.703Z,39
2023-04-23T08:26:30.003Z,40
2023-04-23T08:27:33.616Z,41
2023-04-23T08:28:36.970Z,41
2023-04-23T08:29:41.242Z,41
2023-04-23T08:30:45.169Z,42
2023-04-23T08:31:48.574Z,41
2023-04-23T08:32:52.028Z,41
2023-04-23T08:33:55.512Z,41
2023-04-23T08:35:01.860Z,42
2023-04-23T08:36:05.405Z,42
2023-04-23T08:37:19.885Z,42
2023-04-23T08:38:26.831Z,42
2023-04-23T08:39:30.117Z,42
2023-04-23T08:40:33.546Z,42
2023-04-23T08:41:36.830Z,42
2023-04-23T08:42:40.089Z,42
2023-04-23T08:43:43.518Z,42
2023-04-23T08:44:46.793Z,42
2023-04-23T08:45:50.068Z,42
2023-04-23T08:46:53.836Z,42
2023-04-23T08:48:01.727Z,42
2023-04-23T08:49:06.183Z,42
2023-04-23T08:50:09.614Z,42
2023-04-23T08:51:12.952Z,42
2023-04-23T08:52:16.225Z,42
2023-04-23T08:53:19.501Z,42
2023-04-23T08:54:22.786Z,42
2023-04-23T08:55:26.054Z,42
2023-04-23T08:56:29.729Z,42
2023-04-23T08:57:33.042Z,42
2023-04-23T08:58:36.518Z,42
2023-04-23T08:59:40.427Z,42
2023-04-23T09:00:47.369Z,42
2023-04-23T09:01:50.865Z,42
2023-04-23T09:02:55.186Z,42
2023-04-23T09:03:59.447Z,42
2023-04-23T09:05:02.797Z,42
2023-04-23T09:06:06.136Z,42
2023-04-23T09:07:09.512Z,42
2023-04-23T09:08:12.802Z,42
2023-04-23T09:09:16.161Z,42
2023-04-23T09:10:19.545Z,42
2023-04-23T09:11:22.899Z,42
2023-04-23T09:12:26.424Z,42
2023-04-23T09:13:29.712Z,42
2023-04-23T09:14:33.029Z,42
2023-04-23T09:15:36.509Z,42
2023-04-23T09:16:39.903Z,42
2023-04-23T09:17:43.596Z,42
2023-04-23T09:18:47.608Z,42
2023-04-23T09:19:50.921Z,42
2023-04-23T09:20:54.254Z,42
2023-04-23T09:21:57.554Z,42
2023-04-23T09:23:00.854Z,42
2023-04-23T09:24:04.123Z,41
2023-04-23T09:25:07.514Z,42
2023-04-23T09:26:10.842Z,41
2023-04-23T09:27:14.121Z,41
2023-04-23T09:28:17.646Z,42
2023-04-23T09:29:20.935Z,41
2023-04-23T09:30:24.234Z,41
2023-04-23T09:31:27.652Z,41
2023-04-23T09:32:31.030Z,41
2023-04-23T09:33:34.517Z,42
2023-04-23T09:34:37.870Z,41
2023-04-23T09:35:41.430Z,41
2023-04-23T09:36:44.727Z,41
2023-04-23T09:37:48.050Z,41
2023-04-23T09:38:51.537Z,41
2023-04-23T09:39:54.825Z,41
2023-04-23T09:40:58.115Z,41
2023-04-23T09:42:01.660Z,41
2023-04-23T09:43:04.948Z,41
2023-04-23T09:44:08.502Z,41
2023-04-23T09:45:11.790Z,41
2023-04-23T09:46:15.178Z,41
2023-04-23T09:47:18.574Z,41
2023-04-23T09:48:21.865Z,41
2023-04-23T09:49:25.151Z,41
2023-04-23T09:50:28.566Z,41
2023-04-23T09:51:31.844Z,42
2023-04-23T09:52:35.138Z,42
2023-04-23T09:53:40.403Z,42
2023-04-23T09:54:43.729Z,41
2023-04-23T09:55:47.026Z,42
2023-04-23T09:56:50.557Z,42
2023-04-23T09:57:53.875Z,42
2023-04-23T09:58:57.168Z,42
2023-04-23T10:00:14.060Z,42
2023-04-23T10:01:18.138Z,42
2023-04-23T10:02:21.765Z,42
2023-04-23T10:03:25.345Z,42
2023-04-23T10:04:29.207Z,42
2023-04-23T10:05:50.366Z,42
2023-04-23T10:07:13.611Z,42
2023-04-23T10:08:12.601Z,42
2023-04-23T10:09:15.977Z,42
2023-04-23T10:10:19.244Z,42
2023-04-23T10:11:22.551Z,42
2023-04-23T10:12:53.415Z,42
2023-04-23T10:13:52.129Z,42
2023-04-23T10:14:55.483Z,42
2023-04-23T10:16:14.411Z,42
2023-04-23T10:17:17.095Z,42
2023-04-23T10:18:20.640Z,42
2023-04-23T10:19:23.965Z,42
2023-04-23T10:20:27.500Z,42
2023-04-23T10:21:46.455Z,42
2023-04-23T10:22:48.921Z,42
2023-04-23T10:23:52.216Z,42
2023-04-23T10:24:55.523Z,42
2023-04-23T10:25:58.776Z,42
2023-04-23T10:27:02.371Z,42
2023-04-23T10:28:05.724Z,41
2023-04-23T10:29:09.004Z,41
2023-04-23T10:30:12.486Z,41
2023-04-23T10:31:15.951Z,41
2023-04-23T10:32:19.486Z,41
2023-04-23T10:33:30.792Z,41
2023-04-23T10:34:40.894Z,41
2023-04-23T10:35:44.169Z,41
2023-04-23T10:36:47.521Z,41
2023-04-23T10:37:50.801Z,41
2023-04-23T10:38:59.693Z,41
2023-04-23T10:40:05.246Z,41
2023-04-23T10:41:08.548Z,41
2023-04-23T10:42:11.825Z,41
2023-04-23T10:43:15.086Z,42
2023-04-23T10:44:38.807Z,41
2023-04-23T10:45:36.730Z,41
2023-04-23T10:46:40.085Z,41
2023-04-23T10:47:43.612Z,41
2023-04-23T10:48:47.002Z,41
2023-04-23T10:49:50.519Z,41
2023-04-23T10:51:09.463Z,41
2023-04-23T10:52:19.178Z,41
2023-04-23T10:53:26.535Z,41
2023-04-23T10:54:29.861Z,41
2023-04-23T10:55:33.422Z,41
2023-04-23T10:56:36.689Z,41
2023-04-23T10:57:39.976Z,41
2023-04-23T10:58:43.255Z,41
2023-04-23T10:59:46.586Z,41
2023-04-23T11:00:49.871Z,41
2023-04-23T11:01:53.272Z,41
2023-04-23T11:02:56.976Z,41
2023-04-23T11:04:01.367Z,41
2023-04-23T11:05:05.075Z,41
2023-04-23T11:06:08.536Z,41
2023-04-23T11:07:11.873Z,41
2023-04-23T11:08:20.263Z,40
2023-04-23T11:09:23.576Z,40
2023-04-23T11:10:26.884Z,40
2023-04-23T11:11:30.446Z,40
2023-04-23T11:12:33.749Z,40
2023-04-23T11:13:37.032Z,40
2023-04-23T11:14:40.540Z,40
2023-04-23T11:15:43.841Z,40
2023-04-23T11:16:47.451Z,40
2023-04-23T11:17:51.531Z,40
2023-04-23T11:18:58.101Z,40
2023-04-23T11:20:01.524Z,40
2023-04-23T11:21:04.815Z,40
2023-04-23T11:22:08.142Z,41
2023-04-23T11:23:11.575Z,41
2023-04-23T11:24:14.885Z,41
2023-04-23T11:25:18.441Z,41
2023-04-23T11:26:21.743Z,41
2023-04-23T11:27:25.075Z,41
2023-04-23T11:28:28.531Z,41
2023-04-23T11:29:31.820Z,41
2023-04-23T11:30:35.123Z,41
2023-04-23T11:31:54.678Z,41
2023-04-23T11:32:57.107Z,41
2023-04-23T11:34:00.837Z,41
2023-04-23T11:35:04.106Z,41
2023-04-23T11:36:07.530Z,41
2023-04-23T11:37:10.848Z,41
2023-04-23T11:38:14.178Z,41
2023-04-23T11:39:17.551Z,41
2023-04-23T11:40:20.859Z,41
2023-04-23T11:41:24.523Z,41
2023-04-23T11:42:27.812Z,41
2023-04-23T11:43:31.102Z,41
2023-04-23T11:44:34.402Z,41
2023-04-23T11:45:37.899Z,41
2023-04-23T11:46:41.553Z,41
2023-04-23T11:47:44.930Z,41
2023-04-23T11:48:48.516Z,41
2023-04-23T11:49:51.831Z,41
2023-04-23T11:50:55.115Z,41
2023-04-23T11:51:58.395Z,41
2023-04-23T11:53:01.679Z,41
2023-04-23T11:54:04.981Z,41
2023-04-23T11:55:08.357Z,41
2023-04-23T11:56:11.863Z,41
2023-04-23T11:57:15.145Z,41
2023-04-23T11:58:18.677Z,41
2023-04-23T11:59:21.973Z,41
2023-04-23T12:00:25.271Z,41
2023-04-23T12:01:28.542Z,41
2023-04-23T12:02:31.997Z,41
2023-04-23T12:03:35.837Z,41
2023-04-23T12:04:41.567Z,40
2023-04-23T12:05:45.027Z,40
2023-04-23T12:06:48.617Z,40
2023-04-23T12:07:51.915Z,39
2023-04-23T12:08:55.227Z,39
2023-04-23T12:09:58.540Z,39
2023-04-23T12:11:01.818Z,39
2023-04-23T12:12:05.124Z,39
2023-04-23T12:13:08.541Z,39
2023-04-23T12:14:11.859Z,39
2023-04-23T12:15:15.156Z,39
2023-04-23T12:16:18.740Z,38
2023-04-23T12:17:22.166Z,38
2023-04-23T12:18:25.550Z,38
2023-04-23T12:19:29.085Z,38
2023-04-23T12:20:32.561Z,38
2023-04-23T12:21:35.855Z,39
2023-04-23T12:22:39.110Z,39
2023-04-23T12:23:42.661Z,39
2023-04-23T12:24:46.018Z,39
2023-04-23T12:25:49.654Z,40
2023-04-23T12:26:53.027Z,40
2023-04-23T12:27:56.600Z,40
2023-04-23T12:28:59.990Z,40
2023-04-23T12:30:07.525Z,40
2023-04-23T12:31:10.925Z,40
2023-04-23T12:32:14.258Z,39
2023-04-23T12:33:17.560Z,39
2023-04-23T12:34:20.832Z,39
2023-04-23T12:35:25.918Z,39
2023-04-23T12:36:29.192Z,39
2023-04-23T12:37:32.587Z,40
2023-04-23T12:38:35.851Z,40
2023-04-23T12:39:39.185Z,40
2023-04-23T12:40:42.757Z,40
2023-04-23T12:41:46.066Z,40
2023-04-23T12:42:49.550Z,40
2023-04-23T12:43:52.845Z,40
2023-04-23T12:44:56.480Z,40
2023-04-23T12:46:00.051Z,40
2023-04-23T12:47:03.917Z,40
2023-04-23T12:48:07.664Z,40
2023-04-23T12:49:11.012Z,39
2023-04-23T12:50:14.313Z,39
2023-04-23T12:51:17.600Z,40
2023-04-23T12:52:21.015Z,40
2023-04-23T12:53:24.580Z,41
2023-04-23T12:54:27.848Z,40
2023-04-23T12:55:31.158Z,40
2023-04-23T12:56:34.558Z,41
2023-04-23T12:57:37.833Z,41
2023-04-23T12:58:41.120Z,41
2023-04-23T12:59:45.049Z,41
2023-04-23T13:00:48.888Z,41
2023-04-23T13:01:52.437Z,41
2023-04-23T13:02:56.946Z,41
2023-04-23T13:04:01.028Z,41
2023-04-23T13:05:04.634Z,40
2023-04-23T13:06:07.957Z,40
2023-04-23T13:07:11.261Z,41
2023-04-23T13:08:14.593Z,41
2023-04-23T13:09:17.903Z,41
2023-04-23T13:10:21.196Z,41
2023-04-23T13:11:24.733Z,41
2023-04-23T13:12:28.101Z,41
2023-04-23T13:13:31.581Z,41
2023-04-23T13:14:34.904Z,41
2023-04-23T13:15:38.273Z,41
2023-04-23T13:16:41.635Z,41
2023-04-23T13:17:45.047Z,41
2023-04-23T13:18:48.614Z,41
2023-04-23T13:19:51.891Z,41
2023-04-23T13:20:55.169Z,41
2023-04-23T13:21:58.604Z,41
2023-04-23T13:23:02.003Z,41
2023-04-23T13:24:05.319Z,41
2023-04-23T13:25:08.601Z,41
2023-04-23T13:26:11.856Z,41
2023-04-23T13:27:15.130Z,41
2023-04-23T13:28:18.690Z,40
2023-04-23T13:29:21.973Z,41
2023-04-23T13:30:25.238Z,41
2023-04-23T13:31:28.658Z,41
2023-04-23T13:32:32.486Z,41
2023-04-23T13:33:36.187Z,41
2023-04-23T13:34:39.694Z,41
2023-04-23T13:35:42.976Z,41
2023-04-23T13:36:46.267Z,40
2023-04-23T13:37:49.596Z,41
2023-04-23T13:38:52.887Z,40
2023-04-23T13:39:56.193Z,40
2023-04-23T13:40:59.626Z,40
2023-04-23T13:42:09.719Z,40
2023-04-23T13:43:13.708Z,40
2023-04-23T13:44:16.999Z,40
2023-04-23T13:45:20.328Z,40
2023-04-23T13:46:23.734Z,40
2023-04-23T13:47:27.693Z,40
2023-04-23T13:48:31.108Z,40
2023-04-23T13:49:34.667Z,40
2023-04-23T13:50:37.936Z,40
2023-04-23T13:51:41.293Z,40
2023-04-23T13:52:44.617Z,40
2023-04-23T13:53:47.911Z,40
2023-04-23T13:54:51.195Z,40
2023-04-23T13:55:54.712Z,40
2023-04-23T13:56:58.250Z,40
2023-04-23T13:58:01.603Z,40
2023-04-23T13:59:19.238Z,40
2023-04-23T14:00:22.997Z,40
2023-04-23T14:01:26.461Z,40
2023-04-23T14:02:30.109Z,40
2023-04-23T14:03:33.970Z,40
2023-04-23T14:04:37.812Z,40
2023-04-23T14:05:41.143Z,40
2023-04-23T14:06:44.663Z,40
2023-04-23T14:07:47.994Z,40
2023-04-23T14:08:51.524Z,40
2023-04-23T14:09:54.846Z,40
2023-04-23T14:10:58.142Z,40
2023-04-23T14:12:01.718Z,40
2023-04-23T14:13:05.046Z,40
2023-04-23T14:14:08.358Z,40
2023-04-23T14:15:11.689Z,40
2023-04-23T14:16:15.009Z,40
2023-04-23T14:17:18.595Z,40
2023-04-23T14:18:21.896Z,40
2023-04-23T14:19:25.219Z,40
2023-04-23T14:20:28.719Z,40
2023-04-23T14:21:32.024Z,40
2023-04-23T14:22:35.305Z,40
2023-04-23T14:23:38.635Z,40
2023-04-23T14:24:41.947Z,40
2023-04-23T14:25:45.494Z,40
2023-04-23T14:26:50.412Z,40
2023-04-23T14:27:53.868Z,40
2023-04-23T14:28:57.143Z,40
2023-04-23T14:30:00.692Z,40
2023-04-23T14:31:04.121Z,40
2023-04-23T14:32:07.684Z,40
2023-04-23T14:33:10.984Z,40
2023-04-23T14:34:14.285Z,40
2023-04-23T14:35:17.650Z,40
2023-04-23T14:36:21.002Z,41
2023-04-23T14:37:24.537Z,40
2023-04-23T14:38:27.849Z,40
2023-04-23T14:39:31.250Z,40
2023-04-23T14:40:34.634Z,40
2023-04-23T14:41:37.986Z,40
2023-04-23T14:42:41.274Z,41
2023-04-23T14:43:44.651Z,41
2023-04-23T14:44:47.968Z,41
2023-04-23T14:45:51.559Z,41
2023-04-23T14:46:54.874Z,41
2023-04-23T14:47:58.186Z,41
2023-04-23T14:49:01.649Z,41
2023-04-23T14:50:05.106Z,41
2023-04-23T14:51:08.653Z,41
2023-04-23T14:52:11.978Z,41
2023-04-23T14:53:15.504Z,41
2023-04-23T14:54:18.789Z,41
2023-04-23T14:55:22.085Z,42
2023-04-23T14:56:25.364Z,42
2023-04-23T14:57:28.646Z,42
2023-04-23T14:58:31.948Z,42
2023-04-23T14:59:35.254Z,42
2023-04-23T15:00:38.676Z,42
2023-04-23T15:01:41.990Z,42
2023-04-23T15:02:45.831Z,42
2023-04-23T15:03:50.172Z,42
2023-04-23T15:04:53.963Z,42
2023-04-23T15:05:57.514Z,44
2023-04-23T15:07:00.877Z,45
2023-04-23T15:08:04.186Z,44
2023-04-23T15:09:07.686Z,44